PWSweather.com
Personal Weather Stations
Station Observations
OBERT
Bodensee Hinterland, OberteuringenDE

Bodensee HinterlandOberteuringenDE

Lat: 47.714675, Lon: 9.44447

Elevation: 1427

Station Type: Wunder Weather Station

High Low Average
Temperature 45.3°F7.4°C 34.7°F1.5°C 38.9°F3.8°C
Dew Point 43.5°F6.4°C 34.2°F1.2°C 38.3°F3.5°C
Winds 13.0 mph 20.9 kmh Calm Calm 4.0 mph E6.4 kmh E
Wind Gusts 20.3 mph32.7 kmh -- 7.0 mph11.3 kmh
Humidity 100% 88% 97%
Pressure 29.62 in1003.0 mb 29.29 in991.9 mb -
Precipitation 0.00 in0.0 mm - -
Hour Temp Dew Point Humidity Winds Wind Gusts Pressure Precip Precip Rate Daily Precip Total
12:19 AM 36.8°F2.7°C 35.9°F2.2°C 96% 5.1 mph WSW8.2 kmh WSW 13.7 mph22.0 kmh 29.41 in995.9 mb 0.00 in0.0 mm 0.00 in0.0 mm 0.00 in0.0 mm
12:49 AM 36.1°F2.3°C 35.5°F1.9°C 97% 9.7 mph S15.6 kmh S 12.8 mph20.6 kmh 29.40 in995.6 mb 0.00 in0.0 mm 0.00 in0.0 mm 0.00 in0.0 mm
01:19 AM 36.1°F2.3°C 34.9°F1.6°C 95% 9.3 mph S15.0 kmh S 13.4 mph21.6 kmh 29.39 in995.3 mb 0.00 in0.0 mm 0.00 in0.0 mm 0.00 in0.0 mm
01:49 AM 36.3°F2.4°C 34.9°F1.6°C 94% 10.2 mph S16.4 kmh S 15.3 mph24.6 kmh 29.38 in994.9 mb 0.00 in0.0 mm 0.00 in0.0 mm 0.00 in0.0 mm
02:19 AM 36.5°F2.5°C 34.8°F1.6°C 93% 10.9 mph S17.5 kmh S 17.8 mph28.6 kmh 29.37 in994.6 mb 0.00 in0.0 mm 0.00 in0.0 mm 0.00 in0.0 mm
02:49 AM 35.2°F1.8°C 34.5°F1.4°C 97% 7.9 mph S12.7 kmh S 13.4 mph21.6 kmh 29.37 in994.6 mb 0.00 in0.0 mm 0.00 in0.0 mm 0.00 in0.0 mm
03:19 AM 35.2°F1.8°C 34.8°F1.6°C 98% 9.2 mph S14.8 kmh S 14.0 mph22.5 kmh 29.35 in993.9 mb 0.00 in0.0 mm 0.00 in0.0 mm 0.00 in0.0 mm
03:49 AM 34.7°F1.5°C 34.7°F1.5°C 100% 8.1 mph SSW13.0 kmh SSW 11.5 mph18.5 kmh 29.35 in993.9 mb 0.00 in0.0 mm 0.00 in0.0 mm 0.00 in0.0 mm
04:19 AM 34.8°F1.6°C 34.8°F1.6°C 100% 8.6 mph S13.8 kmh S 16.5 mph26.6 kmh 29.33 in993.2 mb 0.00 in0.0 mm 0.00 in0.0 mm 0.00 in0.0 mm
04:49 AM 35.4°F1.9°C 34.9°F1.6°C 98% 8.4 mph SSE13.5 kmh SSE 14.6 mph23.5 kmh 29.33 in993.2 mb 0.00 in0.0 mm 0.00 in0.0 mm 0.00 in0.0 mm
05:19 AM 35.9°F2.2°C 35.0°F1.7°C 96% 13.0 mph SSE20.9 kmh SSE 20.3 mph32.7 kmh 29.29 in991.9 mb 0.00 in0.0 mm 0.00 in0.0 mm 0.00 in0.0 mm
05:49 AM 36.5°F2.5°C 34.9°F1.6°C 93% 10.0 mph SSE16.1 kmh SSE 15.6 mph25.1 kmh 29.31 in992.6 mb 0.00 in0.0 mm 0.00 in0.0 mm 0.00 in0.0 mm
06:19 AM 36.6°F2.6°C 34.7°F1.5°C 92% 5.9 mph S9.5 kmh S 9.6 mph15.4 kmh 29.30 in992.2 mb 0.00 in0.0 mm 0.00 in0.0 mm 0.00 in0.0 mm
06:49 AM 36.6°F2.6°C 34.4°F1.3°C 91% 5.6 mph N9.0 kmh N 11.2 mph18.0 kmh 29.32 in992.9 mb 0.00 in0.0 mm 0.00 in0.0 mm 0.00 in0.0 mm
07:19 AM 35.0°F1.7°C 34.2°F1.2°C 96% 3.1 mph 5.0 kmh 4.6 mph7.4 kmh 29.35 in993.9 mb 0.00 in0.0 mm 0.00 in0.0 mm 0.00 in0.0 mm
07:49 AM 35.7°F2.1°C 35.7°F2.1°C 100% 2.3 mph 3.7 kmh 5.9 mph9.5 kmh 29.39 in995.3 mb 0.00 in0.0 mm 0.00 in0.0 mm 0.00 in0.0 mm
08:19 AM 36.8°F2.7°C 36.8°F2.7°C 100% 8.0 mph 12.9 kmh 15.0 mph24.1 kmh 29.45 in997.3 mb 0.00 in0.0 mm 0.00 in0.0 mm 0.00 in0.0 mm
08:49 AM 37.7°F3.2°C 37.1°F2.8°C 97% 3.5 mph 5.6 kmh 12.5 mph20.1 kmh 29.49 in998.6 mb 0.00 in0.0 mm 0.00 in0.0 mm 0.00 in0.0 mm
09:19 AM 38.1°F3.4°C 37.4°F3.0°C 97% 9.8 mph N15.8 kmh N 16.5 mph26.6 kmh 29.48 in998.3 mb 0.00 in0.0 mm 0.00 in0.0 mm 0.00 in0.0 mm
09:49 AM 37.9°F3.3°C 37.9°F3.3°C 100% 11.2 mph 18.0 kmh 20.3 mph32.7 kmh 29.50 in999.0 mb 0.00 in0.0 mm 0.00 in0.0 mm 0.00 in0.0 mm
10:19 AM 38.8°F3.8°C 38.8°F3.8°C 100% 5.5 mph 8.9 kmh 10.6 mph17.1 kmh 29.53 in1000.0 mb 0.00 in0.0 mm 0.00 in0.0 mm 0.00 in0.0 mm
10:49 AM 40.8°F4.9°C 40.8°F4.9°C 100% 2.3 mph 3.7 kmh 7.1 mph11.4 kmh 29.54 in1000.3 mb 0.00 in0.0 mm 0.00 in0.0 mm 0.00 in0.0 mm
11:19 AM 42.2°F5.7°C 42.2°F5.7°C 100% Calm Calm 1.8 mph2.9 kmh 29.55 in1000.7 mb 0.00 in0.0 mm 0.00 in0.0 mm 0.00 in0.0 mm
11:49 AM 42.4°F5.8°C 42.4°F5.8°C 100% Calm Calm -- 29.56 in1001.0 mb 0.00 in0.0 mm 0.00 in0.0 mm 0.00 in0.0 mm
12:01 PM 42.9°F6.1°C 42.9°F6.1°C 100% Calm Calm -- 29.57 in1001.4 mb 0.00 in0.0 mm 0.00 in0.0 mm 0.00 in0.0 mm
12:31 PM 45.3°F7.4°C 43.5°F6.4°C 93% 1.1 mph N1.8 kmh N 3.1 mph5.0 kmh 29.56 in1001.0 mb 0.00 in0.0 mm 0.00 in0.0 mm 0.00 in0.0 mm
01:01 PM 44.9°F7.2°C 41.7°F5.4°C 88% 1.3 mph 2.1 kmh 5.6 mph9.0 kmh 29.55 in1000.7 mb 0.00 in0.0 mm 0.00 in0.0 mm 0.00 in0.0 mm
01:31 PM 44.9°F7.2°C 41.7°F5.4°C 88% 2.9 mph 4.7 kmh 4.6 mph7.4 kmh 29.56 in1001.0 mb 0.00 in0.0 mm 0.00 in0.0 mm 0.00 in0.0 mm
02:01 PM 44.9°F7.2°C 42.5°F5.8°C 91% 1.8 mph N2.9 kmh N 3.7 mph6.0 kmh 29.56 in1001.0 mb 0.00 in0.0 mm 0.00 in0.0 mm 0.00 in0.0 mm
02:31 PM 43.8°F6.6°C 41.5°F5.3°C 91% Calm Calm -- 29.57 in1001.4 mb 0.00 in0.0 mm 0.00 in0.0 mm 0.00 in0.0 mm
03:01 PM 42.0°F5.6°C 40.5°F4.7°C 94% Calm Calm -- 29.58 in1001.7 mb 0.00 in0.0 mm 0.00 in0.0 mm 0.00 in0.0 mm
03:31 PM 40.6°F4.8°C 40.6°F4.8°C 100% Calm Calm -- 29.57 in1001.4 mb 0.00 in0.0 mm 0.00 in0.0 mm 0.00 in0.0 mm
04:01 PM 39.7°F4.3°C 39.7°F4.3°C 100% Calm Calm -- 29.56 in1001.0 mb 0.00 in0.0 mm 0.00 in0.0 mm 0.00 in0.0 mm
04:31 PM 38.8°F3.8°C 38.8°F3.8°C 100% Calm Calm -- 29.57 in1001.4 mb 0.00 in0.0 mm 0.00 in0.0 mm 0.00 in0.0 mm
05:01 PM 38.8°F3.8°C 38.8°F3.8°C 100% Calm Calm -- 29.58 in1001.7 mb 0.00 in0.0 mm 0.00 in0.0 mm 0.00 in0.0 mm
05:31 PM 38.3°F3.5°C 38.3°F3.5°C 100% Calm Calm -- 29.58 in1001.7 mb 0.00 in0.0 mm 0.00 in0.0 mm 0.00 in0.0 mm
06:01 PM 38.6°F3.7°C 38.6°F3.7°C 100% Calm Calm -- 29.58 in1001.7 mb 0.00 in0.0 mm 0.00 in0.0 mm 0.00 in0.0 mm
06:31 PM 38.4°F3.6°C 38.4°F3.6°C 100% Calm Calm -- 29.58 in1001.7 mb 0.00 in0.0 mm 0.00 in0.0 mm 0.00 in0.0 mm
07:01 PM 38.6°F3.7°C 38.6°F3.7°C 100% Calm Calm -- 29.59 in1002.0 mb 0.00 in0.0 mm 0.00 in0.0 mm 0.00 in0.0 mm
07:31 PM 39.0°F3.9°C 39.0°F3.9°C 100% 1.7 mph WSW2.7 kmh WSW 3.7 mph6.0 kmh 29.59 in1002.0 mb 0.00 in0.0 mm 0.00 in0.0 mm 0.00 in0.0 mm
08:01 PM 40.2°F4.6°C 40.2°F4.6°C 100% 1.5 mph SW2.4 kmh SW 5.0 mph8.0 kmh 29.59 in1002.0 mb 0.00 in0.0 mm 0.00 in0.0 mm 0.00 in0.0 mm
08:31 PM 40.1°F4.5°C 40.1°F4.5°C 100% Calm Calm -- 29.59 in1002.0 mb 0.00 in0.0 mm 0.00 in0.0 mm 0.00 in0.0 mm
09:01 PM 39.7°F4.3°C 39.7°F4.3°C 100% Calm Calm -- 29.60 in1002.4 mb 0.00 in0.0 mm 0.00 in0.0 mm 0.00 in0.0 mm
09:31 PM 39.5°F4.2°C 39.5°F4.2°C 100% Calm Calm -- 29.61 in1002.7 mb 0.00 in0.0 mm 0.00 in0.0 mm 0.00 in0.0 mm
10:01 PM 40.6°F4.8°C 40.6°F4.8°C 100% 1.8 mph S2.9 kmh S 6.2 mph10.0 kmh 29.61 in1002.7 mb 0.00 in0.0 mm 0.00 in0.0 mm 0.00 in0.0 mm
10:31 PM 40.4°F4.7°C 40.4°F4.7°C 100% Calm Calm 4.0 mph6.4 kmh 29.62 in1003.0 mb 0.00 in0.0 mm 0.00 in0.0 mm 0.00 in0.0 mm
11:01 PM 40.4°F4.7°C 40.4°F4.7°C 100% 2.4 mph SSE3.9 kmh SSE 4.3 mph6.9 kmh 29.61 in1002.7 mb 0.00 in0.0 mm 0.00 in0.0 mm 0.00 in0.0 mm
11:31 PM 40.2°F4.6°C 40.2°F4.6°C 100% 0.2 mph SSE0.3 kmh SSE 3.7 mph6.0 kmh 29.61 in1002.7 mb 0.00 in0.0 mm 0.00 in0.0 mm 0.00 in0.0 mm